sensor_id;sensor_type;location;lat;lon;timestamp;temperature;humidity
21811;DHT22;11067;48.788;9.208;2024-02-23T00:01:31;7.20;99.90
21811;DHT22;11067;48.788;9.208;2024-02-23T00:03:56;7.20;99.90
21811;DHT22;11067;48.788;9.208;2024-02-23T00:06:22;7.20;99.90
21811;DHT22;11067;48.788;9.208;2024-02-23T00:08:53;7.20;99.90
21811;DHT22;11067;48.788;9.208;2024-02-23T00:11:20;7.10;99.90
21811;DHT22;11067;48.788;9.208;2024-02-23T00:13:46;7.20;99.90
21811;DHT22;11067;48.788;9.208;2024-02-23T00:16:11;7.20;99.90
21811;DHT22;11067;48.788;9.208;2024-02-23T00:18:37;7.20;99.90
21811;DHT22;11067;48.788;9.208;2024-02-23T00:21:03;7.20;99.90
21811;DHT22;11067;48.788;9.208;2024-02-23T00:23:28;7.20;99.90
21811;DHT22;11067;48.788;9.208;2024-02-23T00:25:54;7.20;99.90
21811;DHT22;11067;48.788;9.208;2024-02-23T00:28:19;7.20;99.90
21811;DHT22;11067;48.788;9.208;2024-02-23T00:30:45;7.20;99.90
21811;DHT22;11067;48.788;9.208;2024-02-23T00:33:10;7.20;99.90
21811;DHT22;11067;48.788;9.208;2024-02-23T00:35:36;7.20;99.90
21811;DHT22;11067;48.788;9.208;2024-02-23T00:38:02;7.20;99.90
21811;DHT22;11067;48.788;9.208;2024-02-23T00:40:27;7.20;99.90
21811;DHT22;11067;48.788;9.208;2024-02-23T00:42:53;7.20;99.90
21811;DHT22;11067;48.788;9.208;2024-02-23T00:45:19;7.30;99.90
21811;DHT22;11067;48.788;9.208;2024-02-23T00:47:44;7.30;99.90
21811;DHT22;11067;48.788;9.208;2024-02-23T00:50:12;7.30;99.90
21811;DHT22;11067;48.788;9.208;2024-02-23T00:52:37;7.30;99.90
21811;DHT22;11067;48.788;9.208;2024-02-23T00:55:03;7.30;99.90
21811;DHT22;11067;48.788;9.208;2024-02-23T00:57:29;7.20;99.90
21811;DHT22;11067;48.788;9.208;2024-02-23T00:59:58;7.20;99.90
21811;DHT22;11067;48.788;9.208;2024-02-23T01:02:24;7.20;99.90
21811;DHT22;11067;48.788;9.208;2024-02-23T01:04:49;7.30;99.90
21811;DHT22;11067;48.788;9.208;2024-02-23T01:07:15;7.30;99.90
21811;DHT22;11067;48.788;9.208;2024-02-23T01:09:40;7.20;99.90
21811;DHT22;11067;48.788;9.208;2024-02-23T01:12:06;7.20;99.90
21811;DHT22;11067;48.788;9.208;2024-02-23T01:14:32;7.30;99.90
21811;DHT22;11067;48.788;9.208;2024-02-23T01:16:57;7.20;99.90
21811;DHT22;11067;48.788;9.208;2024-02-23T01:19:23;7.20;99.90
21811;DHT22;11067;48.788;9.208;2024-02-23T01:21:49;7.10;99.90
21811;DHT22;11067;48.788;9.208;2024-02-23T01:24:21;7.20;99.90
21811;DHT22;11067;48.788;9.208;2024-02-23T01:26:46;7.10;99.90
21811;DHT22;11067;48.788;9.208;2024-02-23T01:29:12;7.10;99.90
21811;DHT22;11067;48.788;9.208;2024-02-23T01:31:37;7.20;99.90
21811;DHT22;11067;48.788;9.208;2024-02-23T01:34:03;7.20;99.90
21811;DHT22;11067;48.788;9.208;2024-02-23T01:36:28;7.30;99.90
21811;DHT22;11067;48.788;9.208;2024-02-23T01:38:54;7.20;99.90
21811;DHT22;11067;48.788;9.208;2024-02-23T01:41:20;7.10;99.90
21811;DHT22;11067;48.788;9.208;2024-02-23T01:43:45;7.20;99.90
21811;DHT22;11067;48.788;9.208;2024-02-23T01:46:11;7.10;99.90
21811;DHT22;11067;48.788;9.208;2024-02-23T01:48:37;7.10;99.90
21811;DHT22;11067;48.788;9.208;2024-02-23T01:51:03;7.20;99.90
21811;DHT22;11067;48.788;9.208;2024-02-23T01:53:28;7.20;99.90
21811;DHT22;11067;48.788;9.208;2024-02-23T01:55:55;7.20;99.90
21811;DHT22;11067;48.788;9.208;2024-02-23T01:58:21;7.30;99.90
21811;DHT22;11067;48.788;9.208;2024-02-23T02:00:46;7.20;99.90
21811;DHT22;11067;48.788;9.208;2024-02-23T02:03:12;7.20;99.90
21811;DHT22;11067;48.788;9.208;2024-02-23T02:05:37;7.20;99.90
21811;DHT22;11067;48.788;9.208;2024-02-23T02:08:04;7.20;99.90
21811;DHT22;11067;48.788;9.208;2024-02-23T02:10:29;7.20;99.90
21811;DHT22;11067;48.788;9.208;2024-02-23T02:12:55;7.20;99.90
21811;DHT22;11067;48.788;9.208;2024-02-23T02:15:21;7.30;99.90
21811;DHT22;11067;48.788;9.208;2024-02-23T02:17:47;7.20;99.90
21811;DHT22;11067;48.788;9.208;2024-02-23T02:20:13;7.20;99.90
21811;DHT22;11067;48.788;9.208;2024-02-23T02:22:40;7.20;99.90
21811;DHT22;11067;48.788;9.208;2024-02-23T02:25:06;7.20;99.90
21811;DHT22;11067;48.788;9.208;2024-02-23T02:27:32;7.20;99.90
21811;DHT22;11067;48.788;9.208;2024-02-23T02:29:57;7.20;99.90
21811;DHT22;11067;48.788;9.208;2024-02-23T02:32:23;7.20;99.90
21811;DHT22;11067;48.788;9.208;2024-02-23T02:34:49;7.20;99.90
21811;DHT22;11067;48.788;9.208;2024-02-23T02:37:14;7.10;99.90
21811;DHT22;11067;48.788;9.208;2024-02-23T02:39:40;7.10;99.90
21811;DHT22;11067;48.788;9.208;2024-02-23T02:42:06;7.10;99.90
21811;DHT22;11067;48.788;9.208;2024-02-23T02:44:32;7.10;99.90
21811;DHT22;11067;48.788;9.208;2024-02-23T02:46:57;7.00;99.90
21811;DHT22;11067;48.788;9.208;2024-02-23T02:49:23;6.90;99.90
21811;DHT22;11067;48.788;9.208;2024-02-23T02:51:49;7.00;99.90
21811;DHT22;11067;48.788;9.208;2024-02-23T02:54:15;6.90;99.90
21811;DHT22;11067;48.788;9.208;2024-02-23T02:56:44;6.90;99.90
21811;DHT22;11067;48.788;9.208;2024-02-23T02:59:12;6.90;99.90
21811;DHT22;11067;48.788;9.208;2024-02-23T03:01:37;6.90;99.90
21811;DHT22;11067;48.788;9.208;2024-02-23T03:04:03;6.80;99.90
21811;DHT22;11067;48.788;9.208;2024-02-23T03:06:28;6.70;99.90
21811;DHT22;11067;48.788;9.208;2024-02-23T03:08:54;6.70;99.90
21811;DHT22;11067;48.788;9.208;2024-02-23T03:11:19;6.80;99.90
21811;DHT22;11067;48.788;9.208;2024-02-23T03:13:45;6.70;99.90
21811;DHT22;11067;48.788;9.208;2024-02-23T03:16:20;6.80;99.90
21811;DHT22;11067;48.788;9.208;2024-02-23T03:18:46;6.80;99.90
21811;DHT22;11067;48.788;9.208;2024-02-23T03:21:12;6.80;99.90
21811;DHT22;11067;48.788;9.208;2024-02-23T03:23:39;6.70;99.90
21811;DHT22;11067;48.788;9.208;2024-02-23T03:26:07;6.70;99.90
21811;DHT22;11067;48.788;9.208;2024-02-23T03:28:32;6.70;99.90
21811;DHT22;11067;48.788;9.208;2024-02-23T03:31:00;6.70;99.90
21811;DHT22;11067;48.788;9.208;2024-02-23T03:33:25;6.70;99.90
21811;DHT22;11067;48.788;9.208;2024-02-23T03:35:51;6.70;99.90
21811;DHT22;11067;48.788;9.208;2024-02-23T03:38:17;6.60;99.90
21811;DHT22;11067;48.788;9.208;2024-02-23T03:40:42;6.60;99.90
21811;DHT22;11067;48.788;9.208;2024-02-23T03:43:08;6.60;99.90
21811;DHT22;11067;48.788;9.208;2024-02-23T03:45:33;6.60;99.90
21811;DHT22;11067;48.788;9.208;2024-02-23T03:47:59;6.60;99.90
21811;DHT22;11067;48.788;9.208;2024-02-23T03:50:24;6.50;99.90
21811;DHT22;11067;48.788;9.208;2024-02-23T03:52:50;6.50;99.90
21811;DHT22;11067;48.788;9.208;2024-02-23T03:55:15;6.50;99.90
21811;DHT22;11067;48.788;9.208;2024-02-23T03:57:41;6.50;99.90
21811;DHT22;11067;48.788;9.208;2024-02-23T04:00:07;6.50;99.90
21811;DHT22;11067;48.788;9.208;2024-02-23T04:02:34;6.50;99.90
21811;DHT22;11067;48.788;9.208;2024-02-23T04:05:00;6.50;99.90
21811;DHT22;11067;48.788;9.208;2024-02-23T04:07:25;6.50;99.90
21811;DHT22;11067;48.788;9.208;2024-02-23T04:09:51;6.40;99.90
21811;DHT22;11067;48.788;9.208;2024-02-23T04:12:22;6.50;99.90
21811;DHT22;11067;48.788;9.208;2024-02-23T04:14:48;6.50;98.10
21811;DHT22;11067;48.788;9.208;2024-02-23T04:17:14;6.50;99.80
21811;DHT22;11067;48.788;9.208;2024-02-23T04:19:43;6.40;98.80
21811;DHT22;11067;48.788;9.208;2024-02-23T04:22:09;6.40;99.90
21811;DHT22;11067;48.788;9.208;2024-02-23T04:24:39;6.40;99.90
21811;DHT22;11067;48.788;9.208;2024-02-23T04:27:06;6.30;99.90
21811;DHT22;11067;48.788;9.208;2024-02-23T04:29:31;6.30;99.90
21811;DHT22;11067;48.788;9.208;2024-02-23T04:31:58;6.20;99.90
21811;DHT22;11067;48.788;9.208;2024-02-23T04:34:23;6.30;99.90
21811;DHT22;11067;48.788;9.208;2024-02-23T04:36:49;6.30;99.80
21811;DHT22;11067;48.788;9.208;2024-02-23T04:39:14;6.20;99.90
21811;DHT22;11067;48.788;9.208;2024-02-23T04:41:40;6.20;99.90
21811;DHT22;11067;48.788;9.208;2024-02-23T04:44:06;6.30;99.90
21811;DHT22;11067;48.788;9.208;2024-02-23T04:46:31;6.30;99.90
21811;DHT22;11067;48.788;9.208;2024-02-23T04:48:57;6.30;98.20
21811;DHT22;11067;48.788;9.208;2024-02-23T04:51:23;6.30;96.70
21811;DHT22;11067;48.788;9.208;2024-02-23T04:53:49;6.20;98.80
21811;DHT22;11067;48.788;9.208;2024-02-23T04:56:15;6.20;99.90
21811;DHT22;11067;48.788;9.208;2024-02-23T04:58:40;6.20;99.90
21811;DHT22;11067;48.788;9.208;2024-02-23T05:01:08;6.20;99.30
21811;DHT22;11067;48.788;9.208;2024-02-23T05:03:33;6.10;98.00
21811;DHT22;11067;48.788;9.208;2024-02-23T05:05:59;6.10;99.90
21811;DHT22;11067;48.788;9.208;2024-02-23T05:08:24;6.00;99.90
21811;DHT22;11067;48.788;9.208;2024-02-23T05:10:50;6.00;99.90
21811;DHT22;11067;48.788;9.208;2024-02-23T05:13:16;6.00;99.90
21811;DHT22;11067;48.788;9.208;2024-02-23T05:15:42;6.00;99.90
21811;DHT22;11067;48.788;9.208;2024-02-23T05:18:07;6.00;99.90
21811;DHT22;11067;48.788;9.208;2024-02-23T05:20:33;6.00;97.50
21811;DHT22;11067;48.788;9.208;2024-02-23T05:22:58;6.00;97.00
21811;DHT22;11067;48.788;9.208;2024-02-23T05:25:24;5.90;97.00
21811;DHT22;11067;48.788;9.208;2024-02-23T05:27:53;5.90;96.90
21811;DHT22;11067;48.788;9.208;2024-02-23T05:30:19;6.00;93.80
21811;DHT22;11067;48.788;9.208;2024-02-23T05:32:44;6.00;95.30
21811;DHT22;11067;48.788;9.208;2024-02-23T05:35:10;6.00;99.90
21811;DHT22;11067;48.788;9.208;2024-02-23T05:37:36;5.90;99.90
21811;DHT22;11067;48.788;9.208;2024-02-23T05:40:03;5.90;99.90
21811;DHT22;11067;48.788;9.208;2024-02-23T05:42:35;5.80;99.90
21811;DHT22;11067;48.788;9.208;2024-02-23T05:45:01;5.80;99.90
21811;DHT22;11067;48.788;9.208;2024-02-23T05:47:26;5.80;99.90
21811;DHT22;11067;48.788;9.208;2024-02-23T05:49:52;5.80;99.90
21811;DHT22;11067;48.788;9.208;2024-02-23T05:52:18;5.80;99.90
21811;DHT22;11067;48.788;9.208;2024-02-23T05:54:44;5.70;99.90
21811;DHT22;11067;48.788;9.208;2024-02-23T05:57:09;5.70;99.90
21811;DHT22;11067;48.788;9.208;2024-02-23T05:59:35;5.70;99.90
21811;DHT22;11067;48.788;9.208;2024-02-23T06:02:00;5.60;99.90
21811;DHT22;11067;48.788;9.208;2024-02-23T06:04:26;5.50;99.90
21811;DHT22;11067;48.788;9.208;2024-02-23T06:06:52;5.50;99.90
21811;DHT22;11067;48.788;9.208;2024-02-23T06:09:18;5.50;99.90
21811;DHT22;11067;48.788;9.208;2024-02-23T06:11:44;5.50;99.90
21811;DHT22;11067;48.788;9.208;2024-02-23T06:14:10;5.50;99.90
21811;DHT22;11067;48.788;9.208;2024-02-23T06:16:36;5.50;99.90
21811;DHT22;11067;48.788;9.208;2024-02-23T06:19:02;5.40;99.90
21811;DHT22;11067;48.788;9.208;2024-02-23T06:21:29;5.50;99.90
21811;DHT22;11067;48.788;9.208;2024-02-23T06:24:00;5.40;99.90
21811;DHT22;11067;48.788;9.208;2024-02-23T06:26:25;5.40;99.90
21811;DHT22;11067;48.788;9.208;2024-02-23T06:28:51;5.50;99.90
21811;DHT22;11067;48.788;9.208;2024-02-23T06:31:16;5.40;99.90
21811;DHT22;11067;48.788;9.208;2024-02-23T06:33:42;5.40;99.90
21811;DHT22;11067;48.788;9.208;2024-02-23T06:36:09;5.40;99.90
21811;DHT22;11067;48.788;9.208;2024-02-23T06:38:34;5.40;99.90
21811;DHT22;11067;48.788;9.208;2024-02-23T06:41:00;5.40;99.90
21811;DHT22;11067;48.788;9.208;2024-02-23T06:43:25;5.50;99.90
21811;DHT22;11067;48.788;9.208;2024-02-23T06:45:51;5.50;99.90
21811;DHT22;11067;48.788;9.208;2024-02-23T06:48:17;5.60;99.90
21811;DHT22;11067;48.788;9.208;2024-02-23T06:50:43;5.60;99.90
21811;DHT22;11067;48.788;9.208;2024-02-23T06:53:08;5.70;99.90
21811;DHT22;11067;48.788;9.208;2024-02-23T06:55:34;5.60;99.90
21811;DHT22;11067;48.788;9.208;2024-02-23T06:58:01;5.70;99.90
21811;DHT22;11067;48.788;9.208;2024-02-23T07:00:26;5.80;99.90
21811;DHT22;11067;48.788;9.208;2024-02-23T07:02:52;5.90;99.90
21811;DHT22;11067;48.788;9.208;2024-02-23T07:05:17;5.90;99.90
21811;DHT22;11067;48.788;9.208;2024-02-23T07:07:43;5.90;99.90
21811;DHT22;11067;48.788;9.208;2024-02-23T07:10:09;6.00;99.90
21811;DHT22;11067;48.788;9.208;2024-02-23T07:12:35;6.00;99.90
21811;DHT22;11067;48.788;9.208;2024-02-23T07:15:01;6.10;99.90
21811;DHT22;11067;48.788;9.208;2024-02-23T07:17:27;6.00;99.90
21811;DHT22;11067;48.788;9.208;2024-02-23T07:19:53;6.00;99.90
21811;DHT22;11067;48.788;9.208;2024-02-23T07:22:19;6.00;99.90
21811;DHT22;11067;48.788;9.208;2024-02-23T07:24:46;6.00;99.90
21811;DHT22;11067;48.788;9.208;2024-02-23T07:27:11;6.10;99.90
21811;DHT22;11067;48.788;9.208;2024-02-23T07:29:37;6.10;99.90
21811;DHT22;11067;48.788;9.208;2024-02-23T07:32:02;6.10;99.90
21811;DHT22;11067;48.788;9.208;2024-02-23T07:34:28;6.20;99.90
21811;DHT22;11067;48.788;9.208;2024-02-23T07:36:54;6.20;99.90
21811;DHT22;11067;48.788;9.208;2024-02-23T07:39:20;6.30;99.90
21811;DHT22;11067;48.788;9.208;2024-02-23T07:41:46;6.40;99.90
21811;DHT22;11067;48.788;9.208;2024-02-23T07:44:11;6.30;99.90
21811;DHT22;11067;48.788;9.208;2024-02-23T07:46:37;6.40;99.90
21811;DHT22;11067;48.788;9.208;2024-02-23T07:49:04;6.50;99.90
21811;DHT22;11067;48.788;9.208;2024-02-23T07:51:29;6.50;99.90
21811;DHT22;11067;48.788;9.208;2024-02-23T07:53:55;6.40;99.90
21811;DHT22;11067;48.788;9.208;2024-02-23T07:56:21;6.40;99.90
21811;DHT22;11067;48.788;9.208;2024-02-23T07:58:46;6.40;99.90
21811;DHT22;11067;48.788;9.208;2024-02-23T08:01:14;6.40;99.90
21811;DHT22;11067;48.788;9.208;2024-02-23T08:03:40;6.40;99.90
21811;DHT22;11067;48.788;9.208;2024-02-23T08:06:05;6.30;99.90
21811;DHT22;11067;48.788;9.208;2024-02-23T08:08:31;6.20;99.90
21811;DHT22;11067;48.788;9.208;2024-02-23T08:11:00;6.30;99.90
21811;DHT22;11067;48.788;9.208;2024-02-23T08:13:26;6.40;99.90
21811;DHT22;11067;48.788;9.208;2024-02-23T08:15:51;6.50;99.90
21811;DHT22;11067;48.788;9.208;2024-02-23T08:18:17;6.40;99.90
21811;DHT22;11067;48.788;9.208;2024-02-23T08:20:42;6.40;99.90
21811;DHT22;11067;48.788;9.208;2024-02-23T08:23:08;6.40;99.90
21811;DHT22;11067;48.788;9.208;2024-02-23T08:25:35;6.40;99.90
21811;DHT22;11067;48.788;9.208;2024-02-23T08:28:01;6.50;99.90
21811;DHT22;11067;48.788;9.208;2024-02-23T08:30:26;6.40;99.90
21811;DHT22;11067;48.788;9.208;2024-02-23T08:32:52;6.50;99.90
21811;DHT22;11067;48.788;9.208;2024-02-23T08:35:17;6.60;99.90
21811;DHT22;11067;48.788;9.208;2024-02-23T08:37:43;6.60;99.90
21811;DHT22;11067;48.788;9.208;2024-02-23T08:40:09;6.60;99.90
21811;DHT22;11067;48.788;9.208;2024-02-23T08:42:35;6.60;99.90
21811;DHT22;11067;48.788;9.208;2024-02-23T08:45:01;6.50;99.90
21811;DHT22;11067;48.788;9.208;2024-02-23T08:47:26;6.60;99.90
21811;DHT22;11067;48.788;9.208;2024-02-23T08:49:57;6.60;99.90
21811;DHT22;11067;48.788;9.208;2024-02-23T08:52:23;6.50;99.90
21811;DHT22;11067;48.788;9.208;2024-02-23T08:54:48;6.40;99.90
21811;DHT22;11067;48.788;9.208;2024-02-23T08:57:14;6.40;99.90
21811;DHT22;11067;48.788;9.208;2024-02-23T08:59:42;6.40;99.90
21811;DHT22;11067;48.788;9.208;2024-02-23T09:02:08;6.40;99.90
21811;DHT22;11067;48.788;9.208;2024-02-23T09:04:35;6.50;99.90
21811;DHT22;11067;48.788;9.208;2024-02-23T09:07:01;6.50;99.90
21811;DHT22;11067;48.788;9.208;2024-02-23T09:09:27;6.50;99.90
21811;DHT22;11067;48.788;9.208;2024-02-23T09:11:52;6.60;99.90
21811;DHT22;11067;48.788;9.208;2024-02-23T09:14:18;6.80;99.90
21811;DHT22;11067;48.788;9.208;2024-02-23T09:16:43;6.80;96.00
21811;DHT22;11067;48.788;9.208;2024-02-23T09:19:10;6.70;95.00
21811;DHT22;11067;48.788;9.208;2024-02-23T09:21:35;7.00;96.70
21811;DHT22;11067;48.788;9.208;2024-02-23T09:24:01;7.00;82.00
21811;DHT22;11067;48.788;9.208;2024-02-23T09:26:26;7.00;78.90
21811;DHT22;11067;48.788;9.208;2024-02-23T09:28:52;7.10;73.70
21811;DHT22;11067;48.788;9.208;2024-02-23T09:31:18;7.20;72.90
21811;DHT22;11067;48.788;9.208;2024-02-23T09:33:45;7.30;69.90
21811;DHT22;11067;48.788;9.208;2024-02-23T09:36:11;7.20;73.40
21811;DHT22;11067;48.788;9.208;2024-02-23T09:38:37;7.20;74.90
21811;DHT22;11067;48.788;9.208;2024-02-23T09:41:03;7.10;70.90
21811;DHT22;11067;48.788;9.208;2024-02-23T09:43:29;7.10;73.50
21811;DHT22;11067;48.788;9.208;2024-02-23T09:45:57;7.10;66.60
21811;DHT22;11067;48.788;9.208;2024-02-23T09:48:23;7.10;68.10
21811;DHT22;11067;48.788;9.208;2024-02-23T09:50:52;7.20;65.00
21811;DHT22;11067;48.788;9.208;2024-02-23T09:53:19;7.30;60.00
21811;DHT22;11067;48.788;9.208;2024-02-23T09:55:46;7.40;59.30
21811;DHT22;11067;48.788;9.208;2024-02-23T09:58:14;7.30;67.70
21811;DHT22;11067;48.788;9.208;2024-02-23T10:00:42;7.40;73.80
21811;DHT22;11067;48.788;9.208;2024-02-23T10:03:08;7.50;68.70
21811;DHT22;11067;48.788;9.208;2024-02-23T10:05:34;7.60;62.80
21811;DHT22;11067;48.788;9.208;2024-02-23T10:08:00;7.80;59.70
21811;DHT22;11067;48.788;9.208;2024-02-23T10:10:35;7.70;55.70
21811;DHT22;11067;48.788;9.208;2024-02-23T10:13:01;7.60;50.80
21811;DHT22;11067;48.788;9.208;2024-02-23T10:15:29;7.70;52.90
21811;DHT22;11067;48.788;9.208;2024-02-23T10:17:55;7.70;54.50
21811;DHT22;11067;48.788;9.208;2024-02-23T10:20:21;7.70;52.00
21811;DHT22;11067;48.788;9.208;2024-02-23T10:22:47;7.60;56.10
21811;DHT22;11067;48.788;9.208;2024-02-23T10:25:12;7.40;52.60
21811;DHT22;11067;48.788;9.208;2024-02-23T10:27:40;7.40;49.70
21811;DHT22;11067;48.788;9.208;2024-02-23T10:30:05;7.60;45.10
21811;DHT22;11067;48.788;9.208;2024-02-23T10:32:32;7.70;48.50
21811;DHT22;11067;48.788;9.208;2024-02-23T10:35:00;7.60;47.90
21811;DHT22;11067;48.788;9.208;2024-02-23T10:37:29;7.60;41.70
21811;DHT22;11067;48.788;9.208;2024-02-23T10:39:57;7.60;45.20
21811;DHT22;11067;48.788;9.208;2024-02-23T10:42:24;7.60;46.40
21811;DHT22;11067;48.788;9.208;2024-02-23T10:44:54;7.70;45.60
21811;DHT22;11067;48.788;9.208;2024-02-23T10:47:22;7.80;46.80
21811;DHT22;11067;48.788;9.208;2024-02-23T10:49:48;7.80;42.90
21811;DHT22;11067;48.788;9.208;2024-02-23T10:52:13;8.00;41.40
21811;DHT22;11067;48.788;9.208;2024-02-23T10:54:40;8.10;34.60
21811;DHT22;11067;48.788;9.208;2024-02-23T10:57:06;7.80;38.30
21811;DHT22;11067;48.788;9.208;2024-02-23T10:59:32;7.90;40.80
21811;DHT22;11067;48.788;9.208;2024-02-23T11:01:59;7.90;38.00
21811;DHT22;11067;48.788;9.208;2024-02-23T11:04:26;8.00;38.60
21811;DHT22;11067;48.788;9.208;2024-02-23T11:06:54;8.10;36.50
21811;DHT22;11067;48.788;9.208;2024-02-23T11:09:26;8.20;36.10
21811;DHT22;11067;48.788;9.208;2024-02-23T11:11:55;8.30;31.60
21811;DHT22;11067;48.788;9.208;2024-02-23T11:14:50;8.40;29.50
21811;DHT22;11067;48.788;9.208;2024-02-23T11:17:20;8.60;33.60
21811;DHT22;11067;48.788;9.208;2024-02-23T11:19:49;8.40;30.10
21811;DHT22;11067;48.788;9.208;2024-02-23T11:22:14;8.50;30.90
21811;DHT22;11067;48.788;9.208;2024-02-23T11:24:44;8.40;28.90
21811;DHT22;11067;48.788;9.208;2024-02-23T11:27:14;8.70;26.60
21811;DHT22;11067;48.788;9.208;2024-02-23T11:29:42;8.90;24.90
21811;DHT22;11067;48.788;9.208;2024-02-23T11:32:15;8.70;23.40
21811;DHT22;11067;48.788;9.208;2024-02-23T11:34:42;8.50;25.50
21811;DHT22;11067;48.788;9.208;2024-02-23T11:37:10;8.40;25.90
21811;DHT22;11067;48.788;9.208;2024-02-23T11:39:37;8.70;25.70
21811;DHT22;11067;48.788;9.208;2024-02-23T11:42:04;8.50;24.00
21811;DHT22;11067;48.788;9.208;2024-02-23T11:44:31;8.50;23.80
21811;DHT22;11067;48.788;9.208;2024-02-23T11:46:58;8.60;23.30
21811;DHT22;11067;48.788;9.208;2024-02-23T11:49:30;8.80;22.00
21811;DHT22;11067;48.788;9.208;2024-02-23T11:51:56;8.70;21.20
21811;DHT22;11067;48.788;9.208;2024-02-23T11:54:22;8.50;24.00
21811;DHT22;11067;48.788;9.208;2024-02-23T11:56:49;8.70;21.80
21811;DHT22;11067;48.788;9.208;2024-02-23T11:59:15;8.60;21.40
21811;DHT22;11067;48.788;9.208;2024-02-23T12:01:41;8.60;20.80
21811;DHT22;11067;48.788;9.208;2024-02-23T12:04:07;8.60;21.60
21811;DHT22;11067;48.788;9.208;2024-02-23T12:06:33;8.30;20.30
21811;DHT22;11067;48.788;9.208;2024-02-23T12:08:59;8.50;22.20
21811;DHT22;11067;48.788;9.208;2024-02-23T12:11:25;8.40;22.00
21811;DHT22;11067;48.788;9.208;2024-02-23T12:13:51;8.40;23.80
21811;DHT22;11067;48.788;9.208;2024-02-23T12:16:17;8.50;22.90
21811;DHT22;11067;48.788;9.208;2024-02-23T12:18:42;8.60;21.70
21811;DHT22;11067;48.788;9.208;2024-02-23T12:21:10;8.70;22.40
21811;DHT22;11067;48.788;9.208;2024-02-23T12:23:43;8.80;19.60
21811;DHT22;11067;48.788;9.208;2024-02-23T12:26:09;8.70;20.70
21811;DHT22;11067;48.788;9.208;2024-02-23T12:28:36;8.80;19.40
21811;DHT22;11067;48.788;9.208;2024-02-23T12:31:03;8.80;21.00
21811;DHT22;11067;48.788;9.208;2024-02-23T12:33:31;8.80;20.10
21811;DHT22;11067;48.788;9.208;2024-02-23T12:35:58;8.80;22.10
21811;DHT22;11067;48.788;9.208;2024-02-23T12:38:24;9.00;19.80
21811;DHT22;11067;48.788;9.208;2024-02-23T12:40:50;9.00;16.20
21811;DHT22;11067;48.788;9.208;2024-02-23T12:43:16;8.90;17.80
21811;DHT22;11067;48.788;9.208;2024-02-23T12:45:42;9.00;17.80
21811;DHT22;11067;48.788;9.208;2024-02-23T12:48:10;9.00;17.30
21811;DHT22;11067;48.788;9.208;2024-02-23T12:50:35;9.20;13.70
21811;DHT22;11067;48.788;9.208;2024-02-23T12:53:02;9.40;10.60
21811;DHT22;11067;48.788;9.208;2024-02-23T12:55:28;9.10;12.60
21811;DHT22;11067;48.788;9.208;2024-02-23T12:57:53;9.10;16.10
21811;DHT22;11067;48.788;9.208;2024-02-23T13:00:19;9.10;15.90
21811;DHT22;11067;48.788;9.208;2024-02-23T13:02:44;9.10;15.90
21811;DHT22;11067;48.788;9.208;2024-02-23T13:05:10;8.80;20.90
21811;DHT22;11067;48.788;9.208;2024-02-23T13:07:35;8.70;22.40
21811;DHT22;11067;48.788;9.208;2024-02-23T13:10:04;8.80;24.20
21811;DHT22;11067;48.788;9.208;2024-02-23T13:12:29;9.00;21.90
21811;DHT22;11067;48.788;9.208;2024-02-23T13:14:55;9.00;22.90
21811;DHT22;11067;48.788;9.208;2024-02-23T13:17:20;9.10;19.30
21811;DHT22;11067;48.788;9.208;2024-02-23T13:19:46;9.30;17.70
21811;DHT22;11067;48.788;9.208;2024-02-23T13:22:11;9.10;17.60
21811;DHT22;11067;48.788;9.208;2024-02-23T13:24:37;8.90;20.60
21811;DHT22;11067;48.788;9.208;2024-02-23T13:27:05;9.00;21.90
21811;DHT22;11067;48.788;9.208;2024-02-23T13:29:31;9.10;22.70
21811;DHT22;11067;48.788;9.208;2024-02-23T13:31:56;9.20;20.00
21811;DHT22;11067;48.788;9.208;2024-02-23T13:34:22;9.30;18.10
21811;DHT22;11067;48.788;9.208;2024-02-23T13:36:48;9.00;19.40
21811;DHT22;11067;48.788;9.208;2024-02-23T13:39:15;9.10;20.40
21811;DHT22;11067;48.788;9.208;2024-02-23T13:41:41;9.30;21.30
21811;DHT22;11067;48.788;9.208;2024-02-23T13:44:06;9.00;22.90
21811;DHT22;11067;48.788;9.208;2024-02-23T13:46:35;9.00;23.00
21811;DHT22;11067;48.788;9.208;2024-02-23T13:49:04;9.20;25.30
21811;DHT22;11067;48.788;9.208;2024-02-23T13:51:31;9.00;23.70
21811;DHT22;11067;48.788;9.208;2024-02-23T13:53:57;9.30;22.80
21811;DHT22;11067;48.788;9.208;2024-02-23T13:56:23;9.40;20.80
21811;DHT22;11067;48.788;9.208;2024-02-23T13:58:48;9.30;20.10
21811;DHT22;11067;48.788;9.208;2024-02-23T14:01:14;9.30;21.50
21811;DHT22;11067;48.788;9.208;2024-02-23T14:03:40;9.30;21.30
21811;DHT22;11067;48.788;9.208;2024-02-23T14:06:06;9.30;22.60
21811;DHT22;11067;48.788;9.208;2024-02-23T14:08:32;9.50;19.90
21811;DHT22;11067;48.788;9.208;2024-02-23T14:11:00;9.50;20.00
21811;DHT22;11067;48.788;9.208;2024-02-23T14:13:26;9.30;21.50
21811;DHT22;11067;48.788;9.208;2024-02-23T14:15:52;9.20;24.70
21811;DHT22;11067;48.788;9.208;2024-02-23T14:18:17;9.30;22.20
21811;DHT22;11067;48.788;9.208;2024-02-23T14:20:43;9.30;23.10
21811;DHT22;11067;48.788;9.208;2024-02-23T14:23:09;9.20;26.10
21811;DHT22;11067;48.788;9.208;2024-02-23T14:25:34;9.30;24.30
21811;DHT22;11067;48.788;9.208;2024-02-23T14:28:00;9.20;24.90
21811;DHT22;11067;48.788;9.208;2024-02-23T14:30:25;9.30;25.40
21811;DHT22;11067;48.788;9.208;2024-02-23T14:32:51;9.30;23.90
21811;DHT22;11067;48.788;9.208;2024-02-23T14:35:16;9.20;25.60
21811;DHT22;11067;48.788;9.208;2024-02-23T14:37:42;9.10;26.10
21811;DHT22;11067;48.788;9.208;2024-02-23T14:40:08;9.20;27.00
21811;DHT22;11067;48.788;9.208;2024-02-23T14:42:34;9.00;25.50
21811;DHT22;11067;48.788;9.208;2024-02-23T14:44:59;8.90;25.20
21811;DHT22;11067;48.788;9.208;2024-02-23T14:47:25;9.00;28.10
21811;DHT22;11067;48.788;9.208;2024-02-23T14:49:50;9.10;26.30
21811;DHT22;11067;48.788;9.208;2024-02-23T14:52:16;9.40;23.80
21811;DHT22;11067;48.788;9.208;2024-02-23T14:54:41;9.30;22.40
21811;DHT22;11067;48.788;9.208;2024-02-23T14:57:07;9.50;22.90
21811;DHT22;11067;48.788;9.208;2024-02-23T14:59:33;9.40;21.10
21811;DHT22;11067;48.788;9.208;2024-02-23T15:02:05;9.20;23.00
21811;DHT22;11067;48.788;9.208;2024-02-23T15:04:32;9.40;24.60
21811;DHT22;11067;48.788;9.208;2024-02-23T15:06:57;9.20;23.50
21811;DHT22;11067;48.788;9.208;2024-02-23T15:09:23;9.10;24.80
21811;DHT22;11067;48.788;9.208;2024-02-23T15:11:48;9.10;25.10
21811;DHT22;11067;48.788;9.208;2024-02-23T15:14:14;9.10;23.90
21811;DHT22;11067;48.788;9.208;2024-02-23T15:16:40;8.90;25.30
21811;DHT22;11067;48.788;9.208;2024-02-23T15:19:06;9.00;24.20
21811;DHT22;11067;48.788;9.208;2024-02-23T15:21:32;8.90;23.60
21811;DHT22;11067;48.788;9.208;2024-02-23T15:23:57;8.90;24.30
21811;DHT22;11067;48.788;9.208;2024-02-23T15:26:23;8.90;24.90
21811;DHT22;11067;48.788;9.208;2024-02-23T15:28:49;8.90;25.00
21811;DHT22;11067;48.788;9.208;2024-02-23T15:31:14;8.90;23.90
21811;DHT22;11067;48.788;9.208;2024-02-23T15:33:40;9.00;26.10
21811;DHT22;11067;48.788;9.208;2024-02-23T15:36:06;8.90;24.10
21811;DHT22;11067;48.788;9.208;2024-02-23T15:38:34;8.90;24.60